createdAt,value
2023-04-18T00:00:24.873Z,6.28
2023-04-18T00:02:53.964Z,6.55
2023-04-18T00:05:23.624Z,5.15
2023-04-18T00:07:53.424Z,6.55
2023-04-18T00:10:20.050Z,6.67
2023-04-18T00:12:47.242Z,6.47
2023-04-18T00:15:14.150Z,6.43
2023-04-18T00:17:43.555Z,6.70
2023-04-18T00:20:11.336Z,6.35
2023-04-18T00:22:42.843Z,8.77
2023-04-18T00:25:12.227Z,6.65
2023-04-18T00:27:39.723Z,6.30
2023-04-18T00:30:09.308Z,6.35
2023-04-18T00:32:36.036Z,7.22
2023-04-18T00:35:05.951Z,6.40
2023-04-18T00:37:32.517Z,6.63
2023-04-18T00:40:05.641Z,5.88
2023-04-18T00:42:33.558Z,7.55
2023-04-18T00:45:00.187Z,6.47
2023-04-18T00:47:26.893Z,6.00
2023-04-18T00:49:56.693Z,6.65
2023-04-18T00:52:27.262Z,5.78
2023-04-18T00:54:58.642Z,7.15
2023-04-18T00:57:25.207Z,8.63
2023-04-18T00:59:58.048Z,6.63
2023-04-18T01:02:26.447Z,7.25
2023-04-18T01:04:53.196Z,6.70
2023-04-18T01:07:19.734Z,7.70
2023-04-18T01:09:47.052Z,7.63
2023-04-18T01:12:13.634Z,6.17
2023-04-18T01:14:45.698Z,6.95
2023-04-18T01:17:14.441Z,7.70
2023-04-18T01:19:44.492Z,8.38
2023-04-18T01:22:16.264Z,7.47
2023-04-18T01:24:42.894Z,6.47
2023-04-18T01:27:14.531Z,8.60
2023-04-18T01:29:41.110Z,7.03
2023-04-18T01:32:10.271Z,6.28
2023-04-18T01:34:36.908Z,6.38
2023-04-18T01:37:03.524Z,7.53
2023-04-18T01:39:32.385Z,7.85
2023-04-18T01:41:59.002Z,6.97
2023-04-18T01:44:25.907Z,7.75
2023-04-18T01:46:52.470Z,7.03
2023-04-18T01:49:19.061Z,7.07
2023-04-18T01:51:48.083Z,8.38
2023-04-18T01:54:15.213Z,9.35
2023-04-18T01:56:46.582Z,7.10
2023-04-18T01:59:13.107Z,7.05
2023-04-18T02:01:44.940Z,7.27
2023-04-18T02:04:14.333Z,6.38
2023-04-18T02:06:43.116Z,6.68
2023-04-18T02:09:09.650Z,7.10
2023-04-18T02:11:38.441Z,7.50
2023-04-18T02:14:05.033Z,6.97
2023-04-18T02:16:31.644Z,8.25
2023-04-18T02:18:58.201Z,7.60
2023-04-18T02:21:27.084Z,6.28
2023-04-18T02:23:55.847Z,6.88
2023-04-18T02:26:25.123Z,8.37
2023-04-18T02:28:53.901Z,7.85
2023-04-18T02:31:20.551Z,8.60
2023-04-18T02:33:50.187Z,9.30
2023-04-18T02:36:16.729Z,8.70
2023-04-18T02:38:45.790Z,7.80
2023-04-18T02:41:18.104Z,8.38
2023-04-18T02:43:44.712Z,8.27
2023-04-18T02:46:11.619Z,8.73
2023-04-18T02:48:38.272Z,8.90
2023-04-18T02:51:06.039Z,9.50
2023-04-18T02:53:32.864Z,8.63
2023-04-18T02:56:02.566Z,8.20
2023-04-18T02:58:34.769Z,8.20
2023-04-18T03:01:01.318Z,8.43
2023-04-18T03:03:30.935Z,8.47
2023-04-18T03:06:00.553Z,8.98
2023-04-18T03:08:29.466Z,9.90
2023-04-18T03:10:58.496Z,8.98
2023-04-18T03:13:25.418Z,8.55
2023-04-18T03:15:52.305Z,9.90
2023-04-18T03:18:20.941Z,9.40
2023-04-18T03:20:49.895Z,9.02
2023-04-18T03:23:16.508Z,9.88
2023-04-18T03:25:43.072Z,9.13
2023-04-18T03:28:09.633Z,8.70
2023-04-18T03:30:39.170Z,8.38
2023-04-18T03:33:08.651Z,8.63
2023-04-18T03:35:35.198Z,9.10
2023-04-18T03:38:01.796Z,8.90
2023-04-18T03:40:30.621Z,8.83
2023-04-18T03:43:00.504Z,9.95
2023-04-18T03:45:27.115Z,8.82
2023-04-18T03:47:53.767Z,8.57
2023-04-18T03:50:20.573Z,10.38
2023-04-18T03:52:47.161Z,9.57
2023-04-18T03:55:16.113Z,10.02
2023-04-18T03:57:44.908Z,8.93
2023-04-18T04:00:12.412Z,9.35
2023-04-18T04:02:39.472Z,8.93
2023-04-18T04:05:09.030Z,9.93
2023-04-18T04:07:38.161Z,8.40
2023-04-18T04:10:07.238Z,10.23
2023-04-18T04:12:36.200Z,8.52
2023-04-18T04:15:02.810Z,9.50
2023-04-18T04:17:31.881Z,9.27
2023-04-18T04:19:58.408Z,10.63
2023-04-18T04:22:27.338Z,10.43
2023-04-18T04:24:57.823Z,9.40
2023-04-18T04:27:25.127Z,9.90
2023-04-18T04:29:52.339Z,9.67
2023-04-18T04:32:20.409Z,10.27
2023-04-18T04:34:51.899Z,8.63
2023-04-18T04:37:21.450Z,10.35
2023-04-18T04:39:52.869Z,10.27
2023-04-18T04:42:25.116Z,9.03
2023-04-18T04:44:53.664Z,9.27
2023-04-18T04:47:20.615Z,10.02
2023-04-18T04:49:47.180Z,9.98
2023-04-18T04:52:13.729Z,9.30
2023-04-18T04:54:44.910Z,8.63
2023-04-18T04:57:16.341Z,9.20
2023-04-18T04:59:42.896Z,9.60
2023-04-18T05:02:11.629Z,10.60
2023-04-18T05:04:38.473Z,10.23
2023-04-18T05:07:05.785Z,10.73
2023-04-18T05:09:32.330Z,9.38
2023-04-18T05:12:01.518Z,9.93
2023-04-18T05:14:28.123Z,9.02
2023-04-18T05:16:58.106Z,9.85
2023-04-18T05:19:25.197Z,8.73
2023-04-18T05:21:54.226Z,9.18
2023-04-18T05:24:23.108Z,8.90
2023-04-18T05:26:50.232Z,9.77
2023-04-18T05:29:16.941Z,10.60
2023-04-18T05:31:43.596Z,9.53
2023-04-18T05:34:10.220Z,10.40
2023-04-18T05:36:39.295Z,11.00
2023-04-18T05:39:05.855Z,10.25
2023-04-18T05:41:32.454Z,9.98
2023-04-18T05:44:05.329Z,9.20
2023-04-18T05:46:32.993Z,9.65
2023-04-18T05:49:02.182Z,10.40
2023-04-18T05:51:31.377Z,8.65
2023-04-18T05:53:57.944Z,9.68
2023-04-18T05:56:24.606Z,9.27
2023-04-18T05:58:53.577Z,9.30
2023-04-18T06:01:22.417Z,9.55
2023-04-18T06:03:49.073Z,9.75
2023-04-18T06:06:15.949Z,9.90
2023-04-18T06:08:45.095Z,10.17
2023-04-18T06:11:15.057Z,10.70
2023-04-18T06:13:43.924Z,12.48
2023-04-18T06:16:10.624Z,9.27
2023-04-18T06:18:37.335Z,9.18
2023-04-18T06:21:04.003Z,9.60
2023-04-18T06:23:30.528Z,11.43
2023-04-18T06:25:59.549Z,10.63
2023-04-18T06:28:26.452Z,11.55
2023-04-18T06:30:53.019Z,10.38
2023-04-18T06:33:21.806Z,10.57
2023-04-18T06:35:51.102Z,9.50
2023-04-18T06:38:17.709Z,12.30
2023-04-18T06:40:46.507Z,12.05
2023-04-18T06:43:13.101Z,9.48
2023-04-18T06:45:39.739Z,10.40
2023-04-18T06:48:10.745Z,10.30
2023-04-18T06:50:39.638Z,10.00
2023-04-18T06:53:08.673Z,10.55
2023-04-18T06:55:35.920Z,11.23
2023-04-18T06:58:05.526Z,12.20
2023-04-18T07:00:32.101Z,10.50
2023-04-18T07:02:58.824Z,11.55
2023-04-18T07:05:25.481Z,11.15
2023-04-18T07:07:55.097Z,11.43
2023-04-18T07:10:21.771Z,10.87
2023-04-18T07:12:50.866Z,13.07
2023-04-18T07:15:20.038Z,11.30
2023-04-18T07:17:48.963Z,12.07
2023-04-18T07:20:18.043Z,12.32
2023-04-18T07:22:48.080Z,11.70
2023-04-18T07:25:16.776Z,12.70
2023-04-18T07:27:45.574Z,11.38
2023-04-18T07:30:12.490Z,12.05
2023-04-18T07:32:41.361Z,12.60
2023-04-18T07:35:15.329Z,11.67
2023-04-18T07:37:41.944Z,11.20
2023-04-18T07:40:12.122Z,12.38
2023-04-18T07:42:43.369Z,12.88
2023-04-18T07:45:12.803Z,12.80
2023-04-18T07:47:44.483Z,12.83
2023-04-18T07:50:14.025Z,11.00
2023-04-18T07:52:40.537Z,12.23
2023-04-18T07:55:07.544Z,14.18
2023-04-18T07:57:34.272Z,13.30
2023-04-18T08:00:00.955Z,13.50
2023-04-18T08:02:27.593Z,13.10
2023-04-18T08:04:56.785Z,12.35
2023-04-18T08:07:28.222Z,14.38
2023-04-18T08:09:54.818Z,13.75
2023-04-18T08:12:23.843Z,12.30
2023-04-18T08:14:50.407Z,11.90
2023-04-18T08:17:17.152Z,12.10
2023-04-18T08:19:45.108Z,12.98
2023-04-18T08:22:12.035Z,12.30
2023-04-18T08:24:44.556Z,13.50
2023-04-18T08:27:17.855Z,11.30
2023-04-18T08:29:46.589Z,11.95
2023-04-18T08:32:13.129Z,12.82
2023-04-18T08:34:43.491Z,12.70
2023-04-18T08:37:10.232Z,11.83
2023-04-18T08:39:41.535Z,11.43
2023-04-18T08:42:10.474Z,13.40
2023-04-18T08:44:39.578Z,11.80
2023-04-18T08:47:09.579Z,10.60
2023-04-18T08:49:36.159Z,12.93
2023-04-18T08:52:12.360Z,12.60
2023-04-18T08:54:42.015Z,11.57
2023-04-18T08:57:16.522Z,11.05
2023-04-18T08:59:50.397Z,12.95
2023-04-18T09:02:19.242Z,12.83
2023-04-18T09:04:49.065Z,12.52
2023-04-18T09:07:17.401Z,11.65
2023-04-18T09:09:52.638Z,12.80
2023-04-18T09:12:22.715Z,11.15
2023-04-18T09:14:57.511Z,11.53
2023-04-18T09:17:33.406Z,12.90
2023-04-18T09:20:01.853Z,13.68
2023-04-18T09:22:52.178Z,13.32
2023-04-18T09:25:45.033Z,12.35
2023-04-18T09:28:33.102Z,13.53
2023-04-18T09:31:17.467Z,12.00
2023-04-18T09:33:54.462Z,13.40
2023-04-18T09:36:24.049Z,13.23
2023-04-18T09:38:54.456Z,11.55
2023-04-18T09:41:24.637Z,13.60
2023-04-18T09:44:15.288Z,11.07
2023-04-18T09:46:47.372Z,11.73
2023-04-18T09:49:17.670Z,12.40
2023-04-18T09:51:50.214Z,12.90
2023-04-18T09:54:20.738Z,12.00
2023-04-18T09:56:50.704Z,10.75
2023-04-18T09:59:42.699Z,11.75
2023-04-18T10:02:22.569Z,10.85
2023-04-18T10:04:56.540Z,10.18
2023-04-18T10:07:28.360Z,10.00
2023-04-18T10:09:59.673Z,11.13
2023-04-18T10:12:28.765Z,11.45
2023-04-18T10:14:55.984Z,10.43
2023-04-18T10:17:25.539Z,10.65
2023-04-18T10:20:11.125Z,9.87
2023-04-18T10:22:40.239Z,10.93
2023-04-18T10:25:07.435Z,10.38
2023-04-18T10:27:51.763Z,10.45
2023-04-18T10:30:18.770Z,9.60
2023-04-18T10:32:50.521Z,11.37
2023-04-18T10:35:23.576Z,10.90
2023-04-18T10:38:01.903Z,10.07
2023-04-18T10:40:33.788Z,10.65
2023-04-18T10:43:00.624Z,9.85
2023-04-18T10:45:32.532Z,10.40
2023-04-18T10:48:30.017Z,9.73
2023-04-18T10:51:17.737Z,9.30
2023-04-18T10:53:50.993Z,10.60
2023-04-18T10:56:20.638Z,11.43
2023-04-18T10:58:53.658Z,10.30
2023-04-18T11:01:31.675Z,9.35
2023-04-18T11:04:02.453Z,9.30
2023-04-18T11:06:30.392Z,10.32
2023-04-18T11:09:13.993Z,11.27
2023-04-18T11:11:41.577Z,10.80
2023-04-18T11:14:08.266Z,11.63
2023-04-18T11:16:37.400Z,11.65
2023-04-18T11:19:28.269Z,11.73
2023-04-18T11:22:03.325Z,11.45
2023-04-18T11:24:29.984Z,10.73
2023-04-18T11:26:57.032Z,10.30
2023-04-18T11:29:26.105Z,11.93
2023-04-18T11:31:55.285Z,10.68
2023-04-18T11:34:29.911Z,11.27
2023-04-18T11:36:56.505Z,9.77
2023-04-18T11:39:25.539Z,10.30
2023-04-18T11:41:56.859Z,11.07
2023-04-18T11:44:24.826Z,10.13
2023-04-18T11:46:55.180Z,10.75
2023-04-18T11:49:34.398Z,10.97
2023-04-18T11:52:06.546Z,11.32
2023-04-18T11:54:45.651Z,9.68
2023-04-18T11:57:33.002Z,9.40
2023-04-18T12:00:01.042Z,9.73
2023-04-18T12:02:45.390Z,9.83
2023-04-18T12:05:14.986Z,11.52
2023-04-18T12:07:44.232Z,10.38
2023-04-18T12:10:22.107Z,14.43
2023-04-18T12:12:52.500Z,13.52
2023-04-18T12:15:20.268Z,11.07
2023-04-18T12:17:49.137Z,9.15
2023-04-18T12:20:16.149Z,11.13
2023-04-18T12:22:44.027Z,11.02
2023-04-18T12:25:29.111Z,11.15
2023-04-18T12:28:15.256Z,9.87
2023-04-18T12:30:42.393Z,10.32
2023-04-18T12:33:13.615Z,12.23
2023-04-18T12:35:40.452Z,9.77
2023-04-18T12:38:09.227Z,10.18
2023-04-18T12:40:39.567Z,10.13
2023-04-18T12:43:06.874Z,10.90
2023-04-18T12:45:35.818Z,9.80
2023-04-18T12:48:04.668Z,9.55
2023-04-18T12:50:31.371Z,10.32
2023-04-18T12:53:00.473Z,9.10
2023-04-18T12:55:29.024Z,9.88
2023-04-18T12:57:56.082Z,10.32
2023-04-18T13:00:24.376Z,10.88
2023-04-18T13:02:52.491Z,10.40
2023-04-18T13:05:25.099Z,10.87
2023-04-18T13:08:08.465Z,9.75
2023-04-18T13:10:39.766Z,10.32
2023-04-18T13:13:08.498Z,10.68
2023-04-18T13:15:35.114Z,9.20
2023-04-18T13:18:05.094Z,9.87
2023-04-18T13:20:32.539Z,9.00
2023-04-18T13:22:59.123Z,8.23
2023-04-18T13:25:26.619Z,9.98
2023-04-18T13:27:53.380Z,10.05
2023-04-18T13:30:20.071Z,9.60
2023-04-18T13:32:47.073Z,11.07
2023-04-18T13:35:13.826Z,8.80
2023-04-18T13:37:40.457Z,10.00
2023-04-18T13:40:08.007Z,12.57
2023-04-18T13:42:38.478Z,10.60
2023-04-18T13:45:05.807Z,9.40
2023-04-18T13:47:32.567Z,10.98
2023-04-18T13:49:59.413Z,9.52
2023-04-18T13:52:30.727Z,7.85
2023-04-18T13:54:57.330Z,9.57
2023-04-18T13:57:28.500Z,9.52
2023-04-18T13:59:55.071Z,7.75
2023-04-18T14:02:24.201Z,10.63
2023-04-18T14:04:52.152Z,8.23
2023-04-18T14:07:21.070Z,9.30
2023-04-18T14:09:48.202Z,10.65
2023-04-18T14:12:16.919Z,7.93
2023-04-18T14:14:45.682Z,8.27
2023-04-18T14:17:14.631Z,8.40
2023-04-18T14:19:43.532Z,7.83
2023-04-18T14:22:10.134Z,6.53
2023-04-18T14:24:36.693Z,8.52
2023-04-18T14:27:05.546Z,8.48
2023-04-18T14:29:34.332Z,7.90
2023-04-18T14:32:00.923Z,7.40
2023-04-18T14:34:27.482Z,7.60
2023-04-18T14:36:54.069Z,8.38
2023-04-18T14:39:22.869Z,7.75
2023-04-18T14:41:51.681Z,9.02
2023-04-18T14:44:20.990Z,7.87
2023-04-18T14:46:49.851Z,7.50
2023-04-18T14:49:16.616Z,8.57
2023-04-18T14:51:43.321Z,9.25
2023-04-18T14:54:09.913Z,7.05
2023-04-18T14:56:36.508Z,8.80
2023-04-18T14:59:05.324Z,7.30
2023-04-18T15:01:31.892Z,7.50
2023-04-18T15:04:03.669Z,7.68
2023-04-18T15:06:36.211Z,7.03
2023-04-18T15:09:02.855Z,8.60
2023-04-18T15:11:29.429Z,7.10
2023-04-18T15:13:57.051Z,7.32
2023-04-18T15:16:23.693Z,6.47
2023-04-18T15:18:52.515Z,7.07
2023-04-18T15:21:19.077Z,7.70
2023-04-18T15:23:47.869Z,6.93
2023-04-18T15:26:14.661Z,7.35
2023-04-18T15:28:46.606Z,8.13
2023-04-18T15:31:14.330Z,7.57
2023-04-18T15:33:43.056Z,6.90
2023-04-18T15:36:14.497Z,8.43
2023-04-18T15:38:44.035Z,7.82
2023-04-18T15:41:10.670Z,11.23
2023-04-18T15:43:41.752Z,7.55
2023-04-18T15:46:09.321Z,8.40
2023-04-18T15:48:38.258Z,7.40
2023-04-18T15:51:07.678Z,7.60
2023-04-18T15:53:39.186Z,7.88
2023-04-18T15:56:06.428Z,8.00
2023-04-18T15:58:33.005Z,8.00
2023-04-18T16:01:02.820Z,8.00
2023-04-18T16:03:29.551Z,8.02
2023-04-18T16:05:56.322Z,8.13
2023-04-18T16:08:25.179Z,9.05
2023-04-18T16:10:54.265Z,9.23
2023-04-18T16:13:23.355Z,8.90
2023-04-18T16:15:50.035Z,9.63
2023-04-18T16:18:16.644Z,8.75
2023-04-18T16:20:43.326Z,8.80
2023-04-18T16:23:09.911Z,8.23
2023-04-18T16:25:36.482Z,8.40
2023-04-18T16:28:03.382Z,9.20
2023-04-18T16:30:30.034Z,7.80
2023-04-18T16:32:56.999Z,8.75
2023-04-18T16:35:23.758Z,8.50
2023-04-18T16:37:53.799Z,8.48
2023-04-18T16:40:20.602Z,8.32
2023-04-18T16:42:47.188Z,8.15
2023-04-18T16:45:13.978Z,8.20
2023-04-18T16:47:40.715Z,8.90
2023-04-18T16:50:10.183Z,7.82
2023-04-18T16:52:39.310Z,7.45
2023-04-18T16:55:11.426Z,9.23
2023-04-18T16:57:40.252Z,8.40
2023-04-18T17:00:08.368Z,9.23
2023-04-18T17:02:39.681Z,8.00
2023-04-18T17:05:06.753Z,8.40
2023-04-18T17:07:35.997Z,7.60
2023-04-18T17:10:03.031Z,7.72
2023-04-18T17:12:29.606Z,8.83
2023-04-18T17:14:58.683Z,7.38
2023-04-18T17:17:25.353Z,7.68
2023-04-18T17:19:51.917Z,7.95
2023-04-18T17:22:18.475Z,8.02
2023-04-18T17:24:45.011Z,9.00
2023-04-18T17:27:13.654Z,9.02
2023-04-18T17:29:40.913Z,8.18
2023-04-18T17:32:07.780Z,8.23
2023-04-18T17:34:34.568Z,7.47
2023-04-18T17:37:03.442Z,9.50
2023-04-18T17:39:31.257Z,7.00
2023-04-18T17:42:01.043Z,7.88
2023-04-18T17:44:30.635Z,8.45
2023-04-18T17:46:57.173Z,8.82
2023-04-18T17:49:23.856Z,8.17
2023-04-18T17:51:52.781Z,7.65
2023-04-18T17:54:19.339Z,8.00
2023-04-18T17:56:50.505Z,8.80
2023-04-18T17:59:19.612Z,8.70
2023-04-18T18:01:48.812Z,7.30
2023-04-18T18:04:19.845Z,8.80
2023-04-18T18:06:56.372Z,7.80
2023-04-18T18:09:22.958Z,7.63
2023-04-18T18:11:53.990Z,9.10
2023-04-18T18:14:22.012Z,8.77
2023-04-18T18:16:51.280Z,8.75
2023-04-18T18:19:18.076Z,7.72
2023-04-18T18:21:47.212Z,8.70
2023-04-18T18:24:13.990Z,8.07
2023-04-18T18:26:41.009Z,6.80
2023-04-18T18:29:11.190Z,8.05
2023-04-18T18:31:38.822Z,10.32
2023-04-18T18:34:08.351Z,8.85
2023-04-18T18:36:34.958Z,8.63
2023-04-18T18:39:01.576Z,9.00
2023-04-18T18:41:33.080Z,9.32
2023-04-18T18:43:59.647Z,8.07
2023-04-18T18:46:27.279Z,8.93
2023-04-18T18:48:53.959Z,8.90
2023-04-18T18:51:23.804Z,8.40
2023-04-18T18:53:50.605Z,10.70
2023-04-18T18:56:29.416Z,9.27
2023-04-18T18:58:58.295Z,9.07
2023-04-18T19:01:28.747Z,9.02
2023-04-18T19:03:58.273Z,11.30
2023-04-18T19:06:28.616Z,9.00
2023-04-18T19:08:57.513Z,8.77
2023-04-18T19:11:27.868Z,9.77
2023-04-18T19:13:56.714Z,10.40
2023-04-18T19:16:23.363Z,9.67
2023-04-18T19:18:54.826Z,9.40
2023-04-18T19:21:21.452Z,9.68
2023-04-18T19:23:48.068Z,10.27
2023-04-18T19:26:19.365Z,10.13
2023-04-18T19:28:46.051Z,9.10
2023-04-18T19:31:12.667Z,12.45
2023-04-18T19:33:41.829Z,10.10
2023-04-18T19:36:11.438Z,10.43
2023-04-18T19:38:37.980Z,10.18
2023-04-18T19:41:06.864Z,9.47
2023-04-18T19:43:40.270Z,10.32
2023-04-18T19:46:06.850Z,9.88
2023-04-18T19:48:33.633Z,11.43
2023-04-18T19:51:04.228Z,9.95
2023-04-18T19:53:31.060Z,9.67
2023-04-18T19:55:57.781Z,11.93
2023-04-18T19:58:46.838Z,7.75
2023-04-18T20:01:14.608Z,9.70
2023-04-18T20:03:43.526Z,9.98
2023-04-18T20:06:10.863Z,9.77
2023-04-18T20:08:41.521Z,11.13
2023-04-18T20:11:11.540Z,10.25
2023-04-18T20:13:41.337Z,9.77
2023-04-18T20:16:08.999Z,10.75
2023-04-18T20:18:40.207Z,11.13
2023-04-18T20:21:10.841Z,10.38
2023-04-18T20:23:42.157Z,10.82
2023-04-18T20:26:12.076Z,10.48
2023-04-18T20:28:38.696Z,10.07
2023-04-18T20:31:07.834Z,10.37
2023-04-18T20:33:36.546Z,8.70
2023-04-18T20:36:03.597Z,8.43
2023-04-18T20:38:32.709Z,9.45
2023-04-18T20:41:00.814Z,11.52
2023-04-18T20:43:29.717Z,10.57
2023-04-18T20:45:58.686Z,9.57
2023-04-18T20:48:25.566Z,10.18
2023-04-18T20:50:52.156Z,10.55
2023-04-18T20:53:21.126Z,10.05
2023-04-18T20:55:48.577Z,9.70
2023-04-18T20:58:15.205Z,10.43
2023-04-18T21:00:44.876Z,10.30
2023-04-18T21:03:14.914Z,10.23
2023-04-18T21:05:43.287Z,10.60
2023-04-18T21:08:14.650Z,10.17
2023-04-18T21:10:41.237Z,11.07
2023-04-18T21:13:09.241Z,9.93
2023-04-18T21:15:36.037Z,9.93
2023-04-18T21:18:02.712Z,10.02
2023-04-18T21:20:29.312Z,11.07
2023-04-18T21:22:55.896Z,11.02
2023-04-18T21:25:24.956Z,10.18
2023-04-18T21:27:51.862Z,10.30
2023-04-18T21:30:21.246Z,10.15
2023-04-18T21:32:51.547Z,9.10
2023-04-18T21:35:22.593Z,10.65
2023-04-18T21:37:50.918Z,11.90
2023-04-18T21:40:17.573Z,10.15
2023-04-18T21:42:48.154Z,7.60
2023-04-18T21:45:17.427Z,12.83
2023-04-18T21:47:44.044Z,9.75
2023-04-18T21:50:15.291Z,10.52
2023-04-18T21:52:41.909Z,11.68
2023-04-18T21:55:13.410Z,11.38
2023-04-18T21:57:42.230Z,11.03
2023-04-18T22:00:11.201Z,10.88
2023-04-18T22:02:40.895Z,11.13
2023-04-18T22:05:13.952Z,10.02
2023-04-18T22:07:54.471Z,10.30
2023-04-18T22:10:25.054Z,11.23
2023-04-18T22:12:54.093Z,11.10
2023-04-18T22:15:20.729Z,11.13
2023-04-18T22:17:52.078Z,10.70
2023-04-18T22:20:21.642Z,8.07
2023-04-18T22:22:48.295Z,10.10
2023-04-18T22:25:15.026Z,12.10
2023-04-18T22:27:45.065Z,12.75
2023-04-18T22:30:12.400Z,12.60
2023-04-18T22:32:41.880Z,11.00
2023-04-18T22:35:08.999Z,10.50
2023-04-18T22:37:38.275Z,11.65
2023-04-18T22:40:05.544Z,11.23
2023-04-18T22:42:35.645Z,11.48
2023-04-18T22:45:09.920Z,10.95
2023-04-18T22:47:38.725Z,12.27
2023-04-18T22:50:06.289Z,11.63
2023-04-18T22:52:35.385Z,9.73
2023-04-18T22:55:02.752Z,10.88
2023-04-18T22:57:29.391Z,9.95
2023-04-18T22:59:56.473Z,11.47
2023-04-18T23:02:25.236Z,10.80
2023-04-18T23:04:53.384Z,9.95
2023-04-18T23:07:20.062Z,11.30
2023-04-18T23:09:46.617Z,12.25
2023-04-18T23:12:15.706Z,9.47
2023-04-18T23:14:42.292Z,12.23
2023-04-18T23:17:08.865Z,11.85
2023-04-18T23:19:37.609Z,11.70
2023-04-18T23:22:04.216Z,12.80
2023-04-18T23:24:31.475Z,10.27
2023-04-18T23:27:01.487Z,10.68
2023-04-18T23:29:28.141Z,10.95
2023-04-18T23:31:54.691Z,12.43
2023-04-18T23:34:21.304Z,11.60
2023-04-18T23:36:50.218Z,11.37
2023-04-18T23:39:18.550Z,11.50
2023-04-18T23:41:47.836Z,11.25
2023-04-18T23:44:16.830Z,12.48
2023-04-18T23:46:43.490Z,9.75
2023-04-18T23:49:12.296Z,12.40
2023-04-18T23:51:38.815Z,12.65
2023-04-18T23:54:05.655Z,10.70
2023-04-18T23:56:34.405Z,10.77
2023-04-18T23:59:00.973Z,11.38
